createdAt,value
2022-08-03T00:00:37.659Z,55.8
2022-08-03T00:01:37.670Z,55.9
2022-08-03T00:02:37.702Z,56
2022-08-03T00:03:37.722Z,56.2
2022-08-03T00:04:37.662Z,56.1
2022-08-03T00:05:37.668Z,56
2022-08-03T00:06:37.687Z,56
2022-08-03T00:07:37.655Z,56
2022-08-03T00:08:40.198Z,56.2
2022-08-03T00:09:37.657Z,56.2
2022-08-03T00:10:37.666Z,56
2022-08-03T00:11:37.665Z,56.1
2022-08-03T00:12:37.656Z,56.5
2022-08-03T00:13:37.669Z,56.6
2022-08-03T00:15:37.663Z,57
2022-08-03T00:16:37.668Z,56.9
2022-08-03T00:17:52.782Z,56.7
2022-08-03T00:18:37.666Z,56.5
2022-08-03T00:19:37.671Z,56.8
2022-08-03T00:20:37.670Z,56.7
2022-08-03T00:21:37.663Z,56.6
2022-08-03T00:22:37.667Z,56.6
2022-08-03T00:23:52.429Z,56.7
2022-08-03T00:24:37.664Z,56.7
2022-08-03T00:25:37.656Z,56.6
2022-08-03T00:26:37.664Z,56.4
2022-08-03T00:27:37.670Z,57
2022-08-03T00:28:37.664Z,57.1
2022-08-03T00:30:00.024Z,57.1
2022-08-03T00:30:37.658Z,57.2
2022-08-03T00:31:51.424Z,57.2
2022-08-03T00:32:41.373Z,57.2
2022-08-03T00:33:58.348Z,57.1
2022-08-03T00:34:57.367Z,57.2
2022-08-03T00:35:50.890Z,57.3
2022-08-03T00:36:37.668Z,57.7
2022-08-03T00:37:41.187Z,57.6
2022-08-03T00:38:37.668Z,57.8
2022-08-03T00:39:37.674Z,58.1
2022-08-03T00:40:37.670Z,57.8
2022-08-03T00:41:37.667Z,58
2022-08-03T00:42:37.678Z,58.2
2022-08-03T00:43:37.669Z,57.9
2022-08-03T00:44:37.670Z,58.3
2022-08-03T00:45:37.684Z,58.3
2022-08-03T00:46:37.675Z,58.5
2022-08-03T00:47:37.671Z,58.5
2022-08-03T00:48:37.669Z,58.6
2022-08-03T00:49:37.748Z,58.6
2022-08-03T00:50:37.674Z,58.4
2022-08-03T00:51:37.668Z,58.2
2022-08-03T00:52:37.667Z,58.9
2022-08-03T00:53:37.672Z,58.7
2022-08-03T00:54:37.673Z,58.4
2022-08-03T00:55:37.671Z,58.8
2022-08-03T00:56:37.671Z,59.3
2022-08-03T00:57:37.674Z,59.2
2022-08-03T00:58:37.681Z,58.9
2022-08-03T00:59:37.667Z,58.7
2022-08-03T01:00:37.676Z,59.1
2022-08-03T01:01:37.724Z,59.1
2022-08-03T01:02:37.676Z,59.2
2022-08-03T01:03:37.676Z,59.3
2022-08-03T01:04:37.671Z,59.5
2022-08-03T01:05:37.680Z,59.3
2022-08-03T01:06:37.680Z,59.7
2022-08-03T01:07:37.680Z,59.8
2022-08-03T01:08:37.681Z,59.5
2022-08-03T01:09:37.674Z,59.6
2022-08-03T01:10:37.675Z,59.7
2022-08-03T01:11:37.684Z,59.8
2022-08-03T01:12:37.675Z,59.6
2022-08-03T01:14:03.744Z,59.7
2022-08-03T01:14:37.699Z,59.8
2022-08-03T01:15:37.677Z,59.5
2022-08-03T01:16:37.677Z,59.8
2022-08-03T01:17:37.699Z,60.2
2022-08-03T01:18:37.681Z,60.5
2022-08-03T01:19:37.675Z,60.4
2022-08-03T01:20:37.683Z,60.6
2022-08-03T01:21:37.676Z,60.8
2022-08-03T01:22:37.681Z,61.2
2022-08-03T01:23:37.693Z,61.1
2022-08-03T01:24:37.690Z,60.6
2022-08-03T01:25:37.699Z,60.6
2022-08-03T01:26:37.695Z,60.5
2022-08-03T01:27:37.696Z,60.4
2022-08-03T01:28:37.692Z,60.3
2022-08-03T01:29:37.680Z,60.1
2022-08-03T01:30:37.687Z,60.4
2022-08-03T01:32:58.771Z,60.2
2022-08-03T01:33:02.615Z,60.5
2022-08-03T01:33:37.685Z,60.2
2022-08-03T01:34:37.684Z,60.3
2022-08-03T01:35:38.693Z,60
2022-08-03T01:36:37.687Z,60.7
2022-08-03T01:37:38.755Z,60.8
2022-08-03T01:38:37.696Z,60.8
2022-08-03T01:39:37.698Z,60.5
2022-08-03T01:40:37.715Z,60.8
2022-08-03T01:41:37.697Z,61.1
2022-08-03T01:42:37.709Z,61.1
2022-08-03T01:44:26.681Z,60.8
2022-08-03T01:44:37.690Z,60.9
2022-08-03T01:45:37.683Z,60.8
2022-08-03T01:46:37.710Z,60.6
2022-08-03T01:47:37.693Z,60.7
2022-08-03T01:48:37.698Z,61.1
2022-08-03T01:49:37.767Z,60.9
2022-08-03T01:50:37.689Z,61
2022-08-03T01:52:04.562Z,60.9
2022-08-03T01:52:37.688Z,60.7
2022-08-03T01:53:37.692Z,60.8
2022-08-03T01:54:37.689Z,60.9
2022-08-03T01:56:37.699Z,60.7
2022-08-03T01:58:05.391Z,60.8
2022-08-03T01:58:37.696Z,60.6
2022-08-03T01:59:37.695Z,60.5
2022-08-03T02:00:37.965Z,60.7
2022-08-03T02:02:16.116Z,60.9
2022-08-03T02:02:38.194Z,60.8
2022-08-03T02:03:37.693Z,60.6
2022-08-03T02:04:37.694Z,60.5
2022-08-03T02:05:37.695Z,60.4
2022-08-03T02:07:01.479Z,60.7
2022-08-03T02:07:37.694Z,60.6
2022-08-03T02:08:37.691Z,60.9
2022-08-03T02:09:37.693Z,60.8
2022-08-03T02:10:37.729Z,60.8
2022-08-03T02:11:37.697Z,60.7
2022-08-03T02:12:37.696Z,61.2
2022-08-03T02:13:37.692Z,61.3
2022-08-03T02:14:37.701Z,60.9
2022-08-03T02:15:37.690Z,61
2022-08-03T02:16:37.699Z,60.8
2022-08-03T02:17:38.986Z,60.9
2022-08-03T02:18:37.691Z,61.3
2022-08-03T02:19:37.696Z,61.3
2022-08-03T02:20:37.700Z,61.1
2022-08-03T02:21:55.786Z,61.1
2022-08-03T02:22:37.694Z,61
2022-08-03T02:23:37.694Z,61.1
2022-08-03T02:28:37.707Z,61.2
2022-08-03T02:29:40.091Z,60.9
2022-08-03T02:30:37.697Z,61.1
2022-08-03T02:31:37.701Z,61.1
2022-08-03T02:32:37.711Z,61.1
2022-08-03T02:33:37.711Z,61.6
2022-08-03T02:34:37.703Z,61.2
2022-08-03T02:35:37.705Z,61.2
2022-08-03T02:36:37.708Z,61
2022-08-03T02:37:37.699Z,61.4
2022-08-03T02:38:37.696Z,61.2
2022-08-03T02:39:37.707Z,61.7
2022-08-03T02:40:37.695Z,61.4
2022-08-03T02:41:37.709Z,61.2
2022-08-03T02:42:37.709Z,61.2
2022-08-03T02:43:56.773Z,61.2
2022-08-03T02:44:37.702Z,60.9
2022-08-03T02:45:37.853Z,61.1
2022-08-03T02:46:37.709Z,60.9
2022-08-03T02:47:53.903Z,61
2022-08-03T02:48:37.707Z,61.3
2022-08-03T02:49:50.452Z,61.9
2022-08-03T02:50:37.698Z,61.8
2022-08-03T02:51:37.725Z,62.2
2022-08-03T02:52:37.701Z,62.4
2022-08-03T02:53:37.713Z,62.5
2022-08-03T02:54:37.714Z,62.4
2022-08-03T02:55:43.192Z,62.5
2022-08-03T02:56:37.710Z,62.6
2022-08-03T02:57:37.702Z,62.6
2022-08-03T02:58:37.706Z,62.3
2022-08-03T02:59:37.705Z,62.3
2022-08-03T03:00:37.766Z,62.6
2022-08-03T03:01:37.701Z,62.3
2022-08-03T03:02:37.739Z,62.1
2022-08-03T03:03:40.000Z,62.4
2022-08-03T03:04:37.704Z,62.1
2022-08-03T03:05:53.654Z,62.2
2022-08-03T03:06:37.718Z,62.1
2022-08-03T03:07:52.890Z,62
2022-08-03T03:08:37.718Z,62.3
2022-08-03T03:09:40.483Z,61.8
2022-08-03T03:10:37.701Z,61.8
2022-08-03T03:11:37.708Z,61.8
2022-08-03T03:12:37.714Z,61.8
2022-08-03T03:13:37.708Z,61.8
2022-08-03T03:14:37.714Z,61.6
2022-08-03T03:15:37.705Z,61.6
2022-08-03T03:16:37.722Z,61.1
2022-08-03T03:17:37.718Z,61.1
2022-08-03T03:18:37.717Z,61
2022-08-03T03:19:37.712Z,60.6
2022-08-03T03:20:37.702Z,60.5
2022-08-03T03:22:37.722Z,60.3
2022-08-03T03:23:37.714Z,60.2
2022-08-03T03:24:37.707Z,60.3
2022-08-03T03:25:37.707Z,60.3
2022-08-03T03:26:42.303Z,60.3
2022-08-03T03:27:37.712Z,60.1
2022-08-03T03:28:37.727Z,60.1
2022-08-03T03:29:39.416Z,60.3
2022-08-03T03:30:37.717Z,60.2
2022-08-03T03:31:37.715Z,60.3
2022-08-03T03:32:37.722Z,60.3
2022-08-03T03:33:37.723Z,60.6
2022-08-03T03:35:39.224Z,60.6
2022-08-03T03:36:37.716Z,60.6
2022-08-03T03:37:37.720Z,60.2
2022-08-03T03:38:37.720Z,60.3
2022-08-03T03:39:37.715Z,60.4
2022-08-03T03:40:37.718Z,60.5
2022-08-03T03:42:37.714Z,60.4
2022-08-03T03:43:37.752Z,60.5
2022-08-03T03:44:37.718Z,60.4
2022-08-03T03:45:37.714Z,60.5
2022-08-03T03:46:37.961Z,60.4
2022-08-03T03:47:37.720Z,60.2
2022-08-03T03:48:37.727Z,60.4
2022-08-03T03:49:37.865Z,60.4
2022-08-03T03:50:37.746Z,60.3
2022-08-03T03:51:37.720Z,60.4
2022-08-03T03:52:37.717Z,60.2
2022-08-03T03:53:37.729Z,59.9
2022-08-03T03:54:37.720Z,60
2022-08-03T03:56:37.719Z,60.1
2022-08-03T03:57:37.725Z,60.2
2022-08-03T03:58:37.723Z,60.1
2022-08-03T03:59:37.717Z,60.4
2022-08-03T04:00:37.780Z,60.2
2022-08-03T04:01:37.731Z,60.3
2022-08-03T04:03:37.720Z,60.1
2022-08-03T04:04:37.735Z,59.9
2022-08-03T04:05:37.721Z,60.2
2022-08-03T04:06:37.726Z,60.2
2022-08-03T04:07:37.726Z,60.2
2022-08-03T04:08:37.719Z,60.1
2022-08-03T04:09:37.729Z,60.2
2022-08-03T04:10:37.727Z,60
2022-08-03T04:11:37.725Z,60
2022-08-03T04:12:37.719Z,59.9
2022-08-03T04:13:37.720Z,59.9
2022-08-03T04:14:37.725Z,60
2022-08-03T04:15:37.716Z,60
2022-08-03T04:16:41.911Z,59.9
2022-08-03T04:17:37.727Z,60
2022-08-03T04:18:37.731Z,59.8
2022-08-03T04:19:37.958Z,59.8
2022-08-03T04:20:37.732Z,59.7
2022-08-03T04:21:37.729Z,59.5
2022-08-03T04:22:37.735Z,59.6
2022-08-03T04:23:37.733Z,59.6
2022-08-03T04:24:37.730Z,59.9
2022-08-03T04:25:37.725Z,59.8
2022-08-03T04:26:37.733Z,59.8
2022-08-03T04:27:37.741Z,59.8
2022-08-03T04:28:37.728Z,59.5
2022-08-03T04:29:38.599Z,59.5
2022-08-03T04:30:37.728Z,59.6
2022-08-03T04:31:37.726Z,59.6
2022-08-03T04:32:37.773Z,59.5
2022-08-03T04:33:37.722Z,59.5
2022-08-03T04:34:37.731Z,59.5
2022-08-03T04:36:01.461Z,59.2
2022-08-03T04:36:37.739Z,59.2
2022-08-03T04:37:37.740Z,59.3
2022-08-03T04:38:37.727Z,59.3
2022-08-03T04:39:37.730Z,59.2
2022-08-03T04:42:08.384Z,59
2022-08-03T04:42:37.739Z,59.5
2022-08-03T04:43:37.738Z,59.4
2022-08-03T04:44:37.727Z,59.3
2022-08-03T04:45:37.738Z,59.3
2022-08-03T04:46:37.730Z,59.6
2022-08-03T04:47:37.750Z,59.3
2022-08-03T04:48:37.738Z,59.1
2022-08-03T04:49:37.934Z,59.1
2022-08-03T04:50:37.737Z,59.2
2022-08-03T04:51:37.739Z,59.5
2022-08-03T04:52:37.735Z,59.3
2022-08-03T04:53:37.742Z,59.4
2022-08-03T04:55:37.738Z,59.2
2022-08-03T04:56:37.739Z,59.1
2022-08-03T04:57:37.742Z,59
2022-08-03T04:58:37.742Z,58.9
2022-08-03T04:59:39.087Z,58.9
2022-08-03T05:00:37.745Z,58.9
2022-08-03T05:01:37.824Z,58.7
2022-08-03T05:02:37.751Z,58.9
2022-08-03T05:03:37.737Z,58.7
2022-08-03T05:04:37.741Z,58.6
2022-08-03T05:05:50.129Z,58.7
2022-08-03T05:07:37.748Z,58.6
2022-08-03T05:08:46.420Z,58.2
2022-08-03T05:09:52.313Z,58.2
2022-08-03T05:10:37.750Z,58.2
2022-08-03T05:11:37.749Z,57.9
2022-08-03T05:12:37.736Z,57.9
2022-08-03T05:13:37.742Z,57.8
2022-08-03T05:14:37.742Z,57.8
2022-08-03T05:15:42.826Z,57.9
2022-08-03T05:16:37.742Z,57.4
2022-08-03T05:17:37.751Z,57.5
2022-08-03T05:18:37.760Z,57.2
2022-08-03T05:20:37.748Z,56.8
2022-08-03T05:21:50.405Z,56.6
2022-08-03T05:22:37.745Z,55.9
2022-08-03T05:23:37.757Z,55.7
2022-08-03T05:24:37.745Z,55.5
2022-08-03T05:25:37.735Z,55.2
2022-08-03T05:26:37.771Z,55
2022-08-03T05:27:37.742Z,54.6
2022-08-03T05:28:37.753Z,54.1
2022-08-03T05:29:37.746Z,54.1
2022-08-03T05:30:37.749Z,53.6
2022-08-03T05:31:37.745Z,53
2022-08-03T05:32:37.754Z,52.9
2022-08-03T05:33:37.747Z,52.4
2022-08-03T05:34:37.753Z,51.8
2022-08-03T05:36:00.925Z,51.7
2022-08-03T05:36:37.747Z,51.1
2022-08-03T05:38:37.766Z,50.2
2022-08-03T05:39:37.751Z,49.7
2022-08-03T05:40:37.751Z,49.7
2022-08-03T05:41:37.763Z,48.8
2022-08-03T05:42:37.754Z,48.3
2022-08-03T05:43:37.751Z,48.1
2022-08-03T05:44:37.760Z,47.9
2022-08-03T05:45:37.754Z,47.3
2022-08-03T05:46:37.745Z,47
2022-08-03T05:47:37.756Z,46.7
2022-08-03T05:48:37.758Z,46.2
2022-08-03T05:49:37.821Z,45.9
2022-08-03T05:50:42.485Z,45.6
2022-08-03T05:51:37.761Z,44.9
2022-08-03T05:52:37.753Z,44.9
2022-08-03T05:53:37.763Z,44.8
2022-08-03T05:54:56.918Z,44.6
2022-08-03T05:55:37.762Z,44.4
2022-08-03T05:56:37.754Z,44.1
2022-08-03T05:57:37.759Z,43.8
2022-08-03T05:58:37.777Z,43.1
2022-08-03T05:59:38.678Z,42.5
2022-08-03T06:00:37.762Z,42.2
2022-08-03T06:01:37.782Z,41.8
2022-08-03T06:02:37.776Z,41.6
2022-08-03T06:03:37.761Z,41.3
2022-08-03T06:04:37.764Z,41.3
2022-08-03T06:05:37.765Z,41.3
2022-08-03T06:06:37.762Z,41.5
2022-08-03T06:07:37.767Z,41
2022-08-03T06:08:37.762Z,40.9
2022-08-03T06:10:34.866Z,40.7
2022-08-03T06:10:38.409Z,40.6
2022-08-03T06:11:37.770Z,40.3
2022-08-03T06:12:37.770Z,39.8
2022-08-03T06:13:37.764Z,39.2
2022-08-03T06:14:37.776Z,39.3
2022-08-03T06:15:37.771Z,38.7
2022-08-03T06:16:37.770Z,38.8
2022-08-03T06:17:37.952Z,38.6
2022-08-03T06:18:37.775Z,38.1
2022-08-03T06:19:37.758Z,37.5
2022-08-03T06:20:37.768Z,37.4
2022-08-03T06:21:37.776Z,36.9
2022-08-03T06:22:37.772Z,36.8
2022-08-03T06:23:54.122Z,36.3
2022-08-03T06:24:37.775Z,36
2022-08-03T06:25:37.776Z,35.6
2022-08-03T06:26:37.770Z,35
2022-08-03T06:27:37.799Z,35
2022-08-03T06:28:52.503Z,34.8
2022-08-03T06:29:37.778Z,35.1
2022-08-03T06:30:37.777Z,34.9
2022-08-03T06:31:37.772Z,34.6
2022-08-03T06:32:37.796Z,34.4
2022-08-03T06:34:31.327Z,33.9
2022-08-03T06:34:37.782Z,34
2022-08-03T06:35:37.776Z,33.8
2022-08-03T06:36:37.775Z,33.8
2022-08-03T06:37:37.786Z,33.4
2022-08-03T06:38:37.773Z,33.1
2022-08-03T06:39:37.781Z,32.8
2022-08-03T06:41:38.344Z,31.8
2022-08-03T06:42:37.779Z,31.5
2022-08-03T06:44:03.829Z,31.2
2022-08-03T06:44:37.786Z,30.7
2022-08-03T06:45:37.785Z,30.3
2022-08-03T06:46:37.792Z,30.4
2022-08-03T06:47:37.798Z,30.2
2022-08-03T06:48:37.781Z,30
2022-08-03T06:49:37.904Z,29.7
2022-08-03T06:50:37.779Z,29.9
2022-08-03T06:52:38.749Z,29.6
2022-08-03T06:53:37.781Z,29.6
2022-08-03T06:55:41.814Z,29.3
2022-08-03T06:56:37.783Z,29.3
2022-08-03T06:57:37.790Z,29.3
2022-08-03T06:58:37.800Z,29.2
2022-08-03T07:00:09.789Z,29.2
2022-08-03T07:00:37.792Z,28.9
2022-08-03T07:01:37.882Z,28.8
2022-08-03T07:02:37.794Z,29.1
2022-08-03T07:03:37.795Z,29.4
2022-08-03T07:04:37.788Z,29.6
2022-08-03T07:05:37.787Z,29.8
2022-08-03T07:06:37.792Z,30.2
2022-08-03T07:07:37.796Z,30.7
2022-08-03T07:08:37.790Z,30.7
2022-08-03T07:09:37.787Z,31.2
2022-08-03T07:10:37.799Z,31.7
2022-08-03T07:11:37.792Z,32
2022-08-03T07:13:37.794Z,32.2
2022-08-03T07:14:37.797Z,32.9
2022-08-03T07:16:37.791Z,33.1
2022-08-03T07:17:37.793Z,32.9
2022-08-03T07:18:37.790Z,33.1
2022-08-03T07:19:37.814Z,33.6
2022-08-03T07:20:37.805Z,34.1
2022-08-03T07:21:37.792Z,34.8
2022-08-03T07:22:37.805Z,34.5
2022-08-03T07:23:37.792Z,34.8
2022-08-03T07:24:38.084Z,35.2
2022-08-03T07:25:37.802Z,35.6
2022-08-03T07:26:37.803Z,36
2022-08-03T07:27:37.804Z,36.4
2022-08-03T07:28:37.808Z,36.5
2022-08-03T07:29:37.822Z,36.9
2022-08-03T07:30:37.832Z,37.3
2022-08-03T07:31:37.796Z,37.7
2022-08-03T07:32:37.808Z,38.1
2022-08-03T07:33:37.799Z,38.2
2022-08-03T07:34:37.798Z,38.5
2022-08-03T07:35:37.805Z,38.6
2022-08-03T07:37:37.808Z,38.7
2022-08-03T07:38:37.804Z,38.9
2022-08-03T07:39:37.815Z,38.7
2022-08-03T07:40:37.813Z,38.8
2022-08-03T07:41:37.809Z,38.8
2022-08-03T07:42:37.810Z,38.9
2022-08-03T07:43:37.814Z,39.1
2022-08-03T07:44:37.803Z,38.5
2022-08-03T07:45:37.808Z,37.8
2022-08-03T07:46:37.811Z,37.7
2022-08-03T07:47:37.812Z,37.2
2022-08-03T07:48:37.815Z,36.7
2022-08-03T07:49:37.934Z,36.5
2022-08-03T07:50:37.820Z,36.4
2022-08-03T07:51:37.826Z,36.5
2022-08-03T07:52:37.811Z,35.6
2022-08-03T07:53:37.924Z,35
2022-08-03T07:54:37.817Z,34.7
2022-08-03T07:55:37.821Z,33.8
2022-08-03T07:56:37.809Z,32.9
2022-08-03T07:58:37.821Z,31.8
2022-08-03T07:59:56.564Z,30.7
2022-08-03T08:00:37.820Z,30.1
2022-08-03T08:01:37.960Z,29.5
2022-08-03T08:02:37.839Z,28.4
2022-08-03T08:03:41.156Z,27.5
2022-08-03T08:04:37.810Z,26.6
2022-08-03T08:06:37.819Z,25.5
2022-08-03T08:07:37.829Z,25.1
2022-08-03T08:08:37.840Z,24.6
2022-08-03T08:09:37.976Z,24.3
2022-08-03T08:10:37.824Z,23.9
2022-08-03T08:11:40.111Z,23.2
2022-08-03T08:12:37.828Z,23.1
2022-08-03T08:13:37.844Z,22.5
2022-08-03T08:14:37.858Z,22.2
2022-08-03T08:15:42.875Z,21.9
2022-08-03T08:16:37.821Z,21.4
2022-08-03T08:17:37.826Z,21.3
2022-08-03T08:18:37.822Z,21.1
2022-08-03T08:19:38.341Z,20.7
2022-08-03T08:20:38.117Z,20.4
2022-08-03T08:21:53.193Z,20.2
2022-08-03T08:22:37.822Z,19.5
2022-08-03T08:23:42.463Z,19.4
2022-08-03T08:24:37.822Z,19
2022-08-03T08:25:37.827Z,18.8
2022-08-03T08:26:37.832Z,18.7
2022-08-03T08:28:30.666Z,18.8
2022-08-03T08:28:37.832Z,19
2022-08-03T08:29:37.830Z,19.7
2022-08-03T08:30:37.825Z,19.6
2022-08-03T08:31:37.827Z,19.4
2022-08-03T08:32:37.836Z,19.1
2022-08-03T08:34:02.716Z,19.2
2022-08-03T08:34:37.839Z,19.9
2022-08-03T08:35:37.835Z,20.1
2022-08-03T08:36:37.849Z,20.2
2022-08-03T08:37:37.835Z,20.6
2022-08-03T08:38:37.834Z,20.8
2022-08-03T08:39:37.833Z,20.9
2022-08-03T08:41:37.836Z,20.8
2022-08-03T08:42:37.837Z,20.6
2022-08-03T08:43:37.840Z,20.5
2022-08-03T08:44:37.842Z,20.1
2022-08-03T08:45:37.848Z,19.7
2022-08-03T08:46:37.851Z,19.6
2022-08-03T08:47:51.034Z,19.3
2022-08-03T08:48:37.844Z,19.1
2022-08-03T08:49:37.934Z,18.7
2022-08-03T08:51:54.759Z,18
2022-08-03T08:52:37.851Z,17.6
2022-08-03T08:53:37.850Z,17.6
2022-08-03T08:54:37.845Z,17.2
2022-08-03T08:55:59.732Z,16.7
2022-08-03T08:56:37.852Z,17
2022-08-03T08:57:43.131Z,16.4
2022-08-03T08:58:37.850Z,16.2
2022-08-03T08:59:48.735Z,16.1
2022-08-03T09:00:37.856Z,15.9
2022-08-03T09:01:37.936Z,15.4
2022-08-03T09:02:37.851Z,15.7
2022-08-03T09:03:37.860Z,15.1
2022-08-03T09:04:37.860Z,15.6
2022-08-03T09:06:37.857Z,15
2022-08-03T09:07:37.866Z,14.9
2022-08-03T09:08:37.861Z,14.8
2022-08-03T09:10:11.672Z,15.1
2022-08-03T09:10:37.866Z,15.3
2022-08-03T09:12:42.028Z,14.9
2022-08-03T09:13:37.876Z,14.9
2022-08-03T09:14:45.515Z,14.8
2022-08-03T09:15:37.855Z,14
2022-08-03T09:16:37.856Z,14.4
2022-08-03T09:17:37.863Z,14
2022-08-03T09:18:37.859Z,14.4
2022-08-03T09:19:37.861Z,14.4
2022-08-03T09:20:37.870Z,14.6
2022-08-03T09:21:37.858Z,14.6
2022-08-03T09:22:37.862Z,14.2
2022-08-03T09:23:59.799Z,14.2
2022-08-03T09:24:41.570Z,13.8
2022-08-03T09:25:37.871Z,13.9
2022-08-03T09:26:37.871Z,13.8
2022-08-03T09:27:37.869Z,13.6
2022-08-03T09:28:58.005Z,13.2
2022-08-03T09:29:37.862Z,13.3
2022-08-03T09:30:37.864Z,13.4
2022-08-03T09:31:37.874Z,13.3
2022-08-03T09:32:37.863Z,13.1
2022-08-03T09:33:37.861Z,12.6
2022-08-03T09:34:37.871Z,12.6
2022-08-03T09:35:53.723Z,12.6
2022-08-03T09:36:37.863Z,12.3
2022-08-03T09:38:12.106Z,12.3
2022-08-03T09:38:37.874Z,12.2
2022-08-03T09:39:40.961Z,12.2
2022-08-03T09:40:37.874Z,12.3
2022-08-03T09:41:37.876Z,12.2
2022-08-03T09:42:37.868Z,12.3
2022-08-03T09:43:37.908Z,12.3
2022-08-03T09:44:37.879Z,12.3
2022-08-03T09:45:37.869Z,12.2
2022-08-03T09:46:37.867Z,12.2
2022-08-03T09:47:37.882Z,12.2
2022-08-03T09:48:37.870Z,12.3
2022-08-03T09:49:37.929Z,12.8
2022-08-03T09:50:37.874Z,12.6
2022-08-03T09:52:33.660Z,12.3
2022-08-03T09:52:49.395Z,12.5
2022-08-03T09:53:37.903Z,12
2022-08-03T09:54:37.875Z,12
2022-08-03T09:56:32.706Z,12.3
2022-08-03T09:56:37.965Z,12.3
2022-08-03T09:57:37.875Z,12.3
2022-08-03T09:58:37.871Z,12.1
2022-08-03T09:59:38.079Z,12.5
2022-08-03T10:00:37.922Z,12.6
2022-08-03T10:01:37.901Z,12.5
2022-08-03T10:02:37.885Z,12.4
2022-08-03T10:04:03.441Z,12.4
2022-08-03T10:04:37.884Z,12.5
2022-08-03T10:05:37.888Z,12.7
2022-08-03T10:06:37.893Z,12.5
2022-08-03T10:07:37.891Z,12
2022-08-03T10:08:37.928Z,11.9
2022-08-03T10:09:37.902Z,12.1
2022-08-03T10:10:37.889Z,12.3
2022-08-03T10:11:41.752Z,11.8
2022-08-03T10:12:37.897Z,11.8
2022-08-03T10:13:37.886Z,11.5
2022-08-03T10:14:37.887Z,11.2
2022-08-03T10:16:23.006Z,11.2
2022-08-03T10:16:37.893Z,11.2
2022-08-03T10:17:40.343Z,11
2022-08-03T10:18:37.900Z,11.2
2022-08-03T10:19:37.890Z,11.2
2022-08-03T10:20:37.898Z,11.3
2022-08-03T10:21:37.926Z,11.4
2022-08-03T10:22:37.895Z,11.8
2022-08-03T10:23:37.893Z,11.9
2022-08-03T10:24:37.888Z,12.3
2022-08-03T10:25:37.895Z,12.3
2022-08-03T10:26:37.904Z,12
2022-08-03T10:27:37.895Z,11.9
2022-08-03T10:28:42.811Z,11.9
2022-08-03T10:29:37.896Z,11.8
2022-08-03T10:30:37.888Z,11.7
2022-08-03T10:31:37.895Z,11.5
2022-08-03T10:32:37.905Z,11.3
2022-08-03T10:33:51.253Z,11.2
2022-08-03T10:34:42.595Z,10.7
2022-08-03T10:35:37.892Z,11
2022-08-03T10:36:37.899Z,10.7
2022-08-03T10:37:37.925Z,10.6
2022-08-03T10:38:37.908Z,10.8
2022-08-03T10:39:37.895Z,10.4
2022-08-03T10:40:54.544Z,10.3
2022-08-03T10:41:37.902Z,10.2
2022-08-03T10:42:37.896Z,10.5
2022-08-03T10:43:37.898Z,10.4
2022-08-03T10:44:37.900Z,10.4
2022-08-03T10:45:37.906Z,10.6
2022-08-03T10:46:44.194Z,10.5
2022-08-03T10:47:37.907Z,10.3
2022-08-03T10:48:37.910Z,10
2022-08-03T10:49:37.954Z,10.6
2022-08-03T10:50:37.900Z,10.9
2022-08-03T10:51:37.910Z,10.3
2022-08-03T10:52:41.002Z,10.4
2022-08-03T10:53:37.909Z,10.1
2022-08-03T10:54:37.907Z,10.2
2022-08-03T10:55:37.897Z,10
2022-08-03T10:56:48.028Z,10.4
2022-08-03T10:57:37.907Z,10.4
2022-08-03T10:59:37.911Z,10.6
2022-08-03T11:00:37.979Z,10.5
2022-08-03T11:02:00.042Z,10.8
2022-08-03T11:02:37.909Z,11
2022-08-03T11:03:37.927Z,10.5
2022-08-03T11:04:37.923Z,10.9
2022-08-03T11:05:37.914Z,10.8
2022-08-03T11:06:37.917Z,10.8
2022-08-03T11:07:37.908Z,10.8
2022-08-03T11:08:37.913Z,10.6
2022-08-03T11:09:37.913Z,11
2022-08-03T11:10:37.910Z,10.5
2022-08-03T11:11:37.917Z,10.5
2022-08-03T11:12:37.925Z,10.9
2022-08-03T11:13:37.937Z,10.6
2022-08-03T11:14:37.937Z,10.8
2022-08-03T11:15:37.921Z,11
2022-08-03T11:16:37.926Z,11.2
2022-08-03T11:17:45.778Z,11.6
2022-08-03T11:18:37.933Z,11.4
2022-08-03T11:20:37.929Z,11.9
2022-08-03T11:21:37.937Z,12
2022-08-03T11:22:37.926Z,12.2
2022-08-03T11:24:02.417Z,12.2
2022-08-03T11:24:37.926Z,11.9
2022-08-03T11:25:55.119Z,12
2022-08-03T11:26:37.929Z,12
2022-08-03T11:27:37.927Z,12
2022-08-03T11:28:37.931Z,12.1
2022-08-03T11:29:37.937Z,12.5
2022-08-03T11:30:37.928Z,12.6
2022-08-03T11:31:49.728Z,12.4
2022-08-03T11:32:38.310Z,12.1
2022-08-03T11:33:37.932Z,12.3
2022-08-03T11:34:37.935Z,11.9
2022-08-03T11:35:37.931Z,11.9
2022-08-03T11:36:37.932Z,11.7
2022-08-03T11:37:37.926Z,12.3
2022-08-03T11:38:37.938Z,12.1
2022-08-03T11:39:37.934Z,12.2
2022-08-03T11:41:42.804Z,12.9
2022-08-03T11:42:37.935Z,13.4
2022-08-03T11:43:37.929Z,13.9
2022-08-03T11:44:37.936Z,13.8
2022-08-03T11:46:37.942Z,13.9
2022-08-03T11:47:37.944Z,13.7
2022-08-03T11:48:37.939Z,13.7
2022-08-03T11:49:37.997Z,13.3
2022-08-03T11:50:37.942Z,14
2022-08-03T11:51:37.994Z,14
2022-08-03T11:52:37.945Z,14.4
2022-08-03T11:53:42.031Z,14.3
2022-08-03T11:54:37.962Z,14.5
2022-08-03T11:55:37.944Z,15
2022-08-03T11:56:37.942Z,15.2
2022-08-03T11:59:01.190Z,15.8
2022-08-03T11:59:16.469Z,16
2022-08-03T11:59:38.835Z,16.3
2022-08-03T12:00:37.946Z,16.6
2022-08-03T12:02:37.940Z,17
2022-08-03T12:03:38.029Z,17.3
2022-08-03T12:04:37.949Z,17.1
2022-08-03T12:05:37.943Z,17.2
2022-08-03T12:06:37.950Z,17.8
2022-08-03T12:08:04.049Z,17.7
2022-08-03T12:08:37.955Z,17.9
2022-08-03T12:09:37.954Z,18.4
2022-08-03T12:10:37.948Z,18.3
2022-08-03T12:11:37.956Z,18.3
2022-08-03T12:12:37.966Z,18.3
2022-08-03T12:14:26.892Z,18.5
2022-08-03T12:14:48.893Z,18.6
2022-08-03T12:15:37.970Z,18.8
2022-08-03T12:16:37.961Z,18.8
2022-08-03T12:17:37.952Z,19
2022-08-03T12:18:38.021Z,19.5
2022-08-03T12:19:37.951Z,19.8
2022-08-03T12:20:37.960Z,19.9
2022-08-03T12:21:37.960Z,20.2
2022-08-03T12:23:38.180Z,20.6
2022-08-03T12:24:37.962Z,20.5
2022-08-03T12:25:39.394Z,21
2022-08-03T12:26:37.959Z,20.9
2022-08-03T12:27:37.966Z,21
2022-08-03T12:28:38.602Z,21.7
2022-08-03T12:29:37.961Z,21.4
2022-08-03T12:30:37.958Z,21.7
2022-08-03T12:31:37.961Z,21.8
2022-08-03T12:32:37.966Z,21.5
2022-08-03T12:33:37.957Z,21.4
2022-08-03T12:34:37.970Z,21.5
2022-08-03T12:35:37.970Z,21.6
2022-08-03T12:36:37.975Z,21.4
2022-08-03T12:37:38.062Z,21.1
2022-08-03T12:38:39.412Z,21.5
2022-08-03T12:39:37.973Z,20.9
2022-08-03T12:41:37.970Z,21.3
2022-08-03T12:42:37.981Z,21.2
2022-08-03T12:44:37.974Z,21.3
2022-08-03T12:45:37.973Z,21.4
2022-08-03T12:46:37.970Z,21.5
2022-08-03T12:47:37.978Z,21.9
2022-08-03T12:48:37.967Z,21.9
2022-08-03T12:49:37.997Z,22.2
2022-08-03T12:50:37.969Z,22
2022-08-03T12:51:37.989Z,22.3
2022-08-03T12:52:37.967Z,22.2
2022-08-03T12:53:37.973Z,22.4
2022-08-03T12:54:37.968Z,22.4
2022-08-03T12:55:57.867Z,22.4
2022-08-03T12:56:37.973Z,22.9
2022-08-03T12:57:37.972Z,23.1
2022-08-03T12:58:37.983Z,23.5
2022-08-03T12:59:40.446Z,23.9
2022-08-03T13:00:38.044Z,24.5
2022-08-03T13:01:38.077Z,24.6
2022-08-03T13:02:38.047Z,24.3
2022-08-03T13:03:39.687Z,24.5
2022-08-03T13:04:37.991Z,24.6
2022-08-03T13:05:38.022Z,24
2022-08-03T13:06:37.986Z,24
2022-08-03T13:07:37.979Z,23.9
2022-08-03T13:08:37.982Z,24.4
2022-08-03T13:09:37.990Z,24
2022-08-03T13:10:37.983Z,23.9
2022-08-03T13:11:57.921Z,24.5
2022-08-03T13:12:37.986Z,24.7
2022-08-03T13:13:37.984Z,24.8
2022-08-03T13:14:37.982Z,24.8
2022-08-03T13:15:38.532Z,25.2
2022-08-03T13:16:37.993Z,24.8
2022-08-03T13:17:37.990Z,25
2022-08-03T13:18:38.007Z,24.9
2022-08-03T13:19:37.984Z,25.2
2022-08-03T13:20:37.990Z,25.4
2022-08-03T13:22:37.981Z,25.7
2022-08-03T13:23:37.992Z,25.9
2022-08-03T13:24:37.996Z,25.9
2022-08-03T13:25:37.990Z,25.8
2022-08-03T13:26:38.007Z,26.1
2022-08-03T13:28:04.929Z,26
2022-08-03T13:28:37.997Z,26.3
2022-08-03T13:29:38.003Z,25.8
2022-08-03T13:30:37.999Z,26
2022-08-03T13:31:38.005Z,26.4
2022-08-03T13:32:38.002Z,26.2
2022-08-03T13:33:38.005Z,26.2
2022-08-03T13:34:37.987Z,25.6
2022-08-03T13:35:37.993Z,25.7
2022-08-03T13:37:06.367Z,25.6
2022-08-03T13:37:38.001Z,25.5
2022-08-03T13:38:38.303Z,26
2022-08-03T13:39:57.829Z,26.3
2022-08-03T13:41:38.007Z,25.6
2022-08-03T13:42:38.910Z,25.9
2022-08-03T13:43:37.991Z,25.3
2022-08-03T13:44:38.011Z,24.6
2022-08-03T13:45:38.006Z,24.8
2022-08-03T13:46:38.004Z,25.6
2022-08-03T13:47:38.094Z,25.4
2022-08-03T13:48:38.069Z,25.4
2022-08-03T13:49:38.013Z,25.5
2022-08-03T13:50:42.807Z,25.8
2022-08-03T13:51:38.012Z,25.7
2022-08-03T13:52:37.999Z,25.4
2022-08-03T13:53:38.039Z,25.8
2022-08-03T13:54:38.007Z,25.8
2022-08-03T13:55:38.018Z,25.7
2022-08-03T13:58:06.292Z,25.3
2022-08-03T13:58:38.017Z,25.9
2022-08-03T13:59:38.011Z,25.6
2022-08-03T14:00:38.010Z,25.5
2022-08-03T14:02:38.136Z,25.6
2022-08-03T14:03:38.010Z,25.8